Time;durP1;ratioP1;P1;durP2;ratioP2;P2;SDS_P1;SDS_P2;PMS_P1;PMS_P2;Temp;Humidity;BMP_temperature;BMP_pressure;BME280_temperature;BME280_humidity;BME280_pressure;Samples;Min_cycle;Max_cycle;Signal;HPM_P1;HPM_P2
2022/01/30 00:00:10;;;;;;;12.68;3.60;;;;;;;5.92;79.55;102589.19;5084328;28;20487;-79
2022/01/30 00:02:36;;;;;;;16.58;2.97;;;;;;;5.89;79.43;102592.97;5083658;28;20035;-80
2022/01/30 00:05:02;;;;;;;22.40;4.75;;;;;;;5.88;79.27;102588.63;5084591;28;20024;-79
2022/01/30 00:07:27;;;;;;;19.23;6.10;;;;;;;5.83;78.93;102580.19;5083965;28;20406;-78
2022/01/30 00:09:53;;;;;;;18.52;3.40;;;;;;;5.89;79.57;102597.41;5084128;28;20028;-79
2022/01/30 00:12:25;;;;;;;22.95;5.13;;;;;;;5.89;79.11;102582.38;5081731;28;20032;-79
2022/01/30 00:14:54;;;;;;;21.75;4.18;;;;;;;5.89;78.49;102594.75;5083715;28;20024;-79
2022/01/30 00:17:25;;;;;;;13.52;3.15;;;;;;;5.88;78.75;102585.13;5082969;28;20025;-78
2022/01/30 00:19:59;;;;;;;15.07;2.95;;;;;;;5.87;78.73;102594.06;5080964;28;20078;-79
2022/01/30 00:25:03;;;;;;;16.75;5.38;;;;;;;5.76;78.68;102601.97;5081870;28;20394;-79
2022/01/30 00:27:47;;;;;;;19.52;4.88;;;;;;;5.71;79.06;102583.81;5080348;28;20108;-80
2022/01/30 00:30:15;;;;;;;25.55;4.85;;;;;;;5.73;79.09;102605.72;5079940;28;20071;-79
2022/01/30 00:32:40;;;;;;;16.60;4.82;;;;;;;5.70;79.50;102608.63;5085632;28;20394;-79
2022/01/30 00:35:08;;;;;;;16.25;3.33;;;;;;;5.69;79.20;102615.72;5081261;28;20025;-79
2022/01/30 00:37:39;;;;;;;16.45;5.13;;;;;;;5.66;79.01;102605.38;5077166;28;20023;-79
2022/01/30 00:40:06;;;;;;;15.32;4.65;;;;;;;5.69;79.17;102609.59;5082541;28;20479;-79
2022/01/30 00:42:31;;;;;;;19.75;3.05;;;;;;;5.65;79.20;102608.97;5079656;28;20024;-78
2022/01/30 00:44:56;;;;;;;20.10;2.85;;;;;;;5.61;79.46;102612.84;5078852;28;20043;-78
2022/01/30 00:47:22;;;;;;;16.48;4.00;;;;;;;5.55;79.72;102613.28;5084217;28;20060;-78
2022/01/30 00:49:47;;;;;;;13.75;2.80;;;;;;;5.52;80.08;102621.47;5083634;28;20032;-79
2022/01/30 00:52:16;;;;;;;21.92;5.53;;;;;;;5.47;80.50;102618.34;5081375;28;20479;-79
2022/01/30 00:54:42;;;;;;;19.40;4.03;;;;;;;5.39;80.55;102616.28;5086001;28;20060;-79
2022/01/30 00:57:07;;;;;;;14.65;4.00;;;;;;;5.38;80.70;102621.72;5082954;28;20062;-78
2022/01/30 00:59:33;;;;;;;14.93;3.42;;;;;;;5.37;80.66;102627.97;5079695;28;20032;-79
2022/01/30 01:01:58;;;;;;;21.88;4.57;;;;;;;5.33;80.65;102635.31;5079528;28;20031;-79
2022/01/30 01:04:23;;;;;;;19.70;3.85;;;;;;;5.30;80.87;102619.66;5080765;28;20461;-79
2022/01/30 01:06:50;;;;;;;19.50;4.45;;;;;;;5.27;80.85;102631.34;5081319;28;20040;-79
2022/01/30 01:09:18;;;;;;;18.30;6.72;;;;;;;5.25;80.82;102627.94;5080375;28;20039;-78
2022/01/30 01:25:14;;;;;;;17.73;3.58;;;;;;;5.21;81.39;102629.16;5084852;28;20083;-79
2022/01/30 01:27:40;;;;;;;25.08;4.78;;;;;;;5.21;81.32;102633.59;5080305;28;20139;-79
2022/01/30 01:30:05;;;;;;;10.10;2.58;;;;;;;5.18;81.46;102641.75;5081042;28;20060;-79
2022/01/30 01:32:31;;;;;;;13.07;3.42;;;;;;;5.14;81.51;102641.16;5082069;28;20027;-79
2022/01/30 01:34:56;;;;;;;17.55;3.72;;;;;;;5.07;81.92;102641.75;5081840;28;20032;-79
2022/01/30 01:37:22;;;;;;;18.55;2.90;;;;;;;5.14;81.73;102646.44;5080537;28;20024;-79
2022/01/30 01:39:47;;;;;;;20.23;4.18;;;;;;;5.06;82.16;102630.34;5081894;28;20039;-79
2022/01/30 01:42:15;;;;;;;15.30;4.20;;;;;;;5.09;81.88;102640.66;5080688;28;20034;-79
2022/01/30 01:44:45;;;;;;;15.13;5.65;;;;;;;5.04;81.81;102637.53;5082869;28;20055;-79
2022/01/30 01:47:11;;;;;;;6.93;2.53;;;;;;;4.98;81.89;102641.47;5078988;28;20448;-79
2022/01/30 01:49:38;;;;;;;16.08;4.60;;;;;;;4.97;81.81;102650.34;5081609;28;20050;-79
2022/01/30 01:54:43;;;;;;;13.88;2.78;;;;;;;4.88;81.99;102652.88;5079903;28;20163;-79
2022/01/30 01:57:09;;;;;;;11.88;3.22;;;;;;;4.87;82.37;102653.81;5079472;28;20020;-79
2022/01/30 01:59:34;;;;;;;11.85;3.95;;;;;;;4.84;82.00;102647.78;5082617;28;20062;-79
2022/01/30 02:02:01;;;;;;;14.43;2.95;;;;;;;4.82;82.19;102646.22;5079602;28;20113;-79
2022/01/30 02:04:27;;;;;;;23.77;4.22;;;;;;;4.78;82.06;102637.69;5081911;28;20055;-78
2022/01/30 02:07:04;;;;;;;13.57;2.85;;;;;;;4.79;82.36;102639.38;5077231;28;20042;-79
2022/01/30 02:09:32;;;;;;;24.27;4.45;;;;;;;4.72;82.32;102632.88;5075784;28;20050;-78
2022/01/30 02:11:59;;;;;;;19.60;4.68;;;;;;;4.72;82.05;102643.44;5082636;28;20098;-79
2022/01/30 02:14:35;;;;;;;17.45;3.65;;;;;;;4.69;82.37;102635.75;5078434;28;20033;-79
2022/01/30 02:25:39;;;;;;;21.17;2.83;;;;;;;4.54;82.12;102643.00;5081767;28;20090;-78
2022/01/30 02:28:00;;;;;;;13.60;3.15;;;;;;;4.49;82.70;102636.38;5076169;28;20046;-78
2022/01/30 02:30:31;;;;;;;15.55;2.40;;;;;;;4.50;83.25;102638.03;5080641;28;20078;-79
2022/01/30 02:32:57;;;;;;;;;;;;;;;4.51;82.71;102643.22;5082163;28;20112;-79
2022/01/30 02:35:23;;;;;;;23.05;5.55;;;;;;;4.48;83.40;102635.53;5081429;28;20007;-79
2022/01/30 02:37:52;;;;;;;14.55;3.20;;;;;;;4.45;83.01;102633.09;5076189;28;20034;-79
2022/01/30 02:40:17;;;;;;;25.85;4.28;;;;;;;4.45;83.21;102634.88;5079762;28;20569;-79
2022/01/30 02:42:48;;;;;;;20.15;3.97;;;;;;;4.47;83.49;102632.97;5080183;28;20124;-79
2022/01/30 02:45:15;;;;;;;15.27;3.50;;;;;;;4.48;83.61;102629.38;5079521;28;20028;-79
2022/01/30 02:48:13;;;;;;;22.85;4.60;;;;;;;4.48;83.33;102622.31;5081138;28;20024;-78
2022/01/30 02:53:08;;;;;;;21.90;4.00;;;;;;;4.51;83.78;102626.53;5079718;28;20047;-80
2022/01/30 02:55:33;;;;;;;13.98;3.08;;;;;;;4.49;83.63;102628.44;5079591;28;20041;-79
2022/01/30 02:57:59;;;;;;;15.38;3.83;;;;;;;4.53;83.64;102637.81;5079743;28;20031;-79
2022/01/30 03:00:24;;;;;;;22.05;4.28;;;;;;;4.55;83.24;102647.31;5080780;28;20029;-78
2022/01/30 03:02:50;;;;;;;13.70;2.25;;;;;;;4.52;83.73;102652.81;5079213;28;20033;-78
2022/01/30 03:05:15;;;;;;;15.50;4.60;;;;;;;4.49;83.48;102653.06;5075796;28;20028;-79
2022/01/30 03:07:40;;;;;;;19.00;3.75;;;;;;;4.52;83.52;102658.09;5078530;28;20033;-79
2022/01/30 03:10:06;;;;;;;16.73;2.85;;;;;;;4.46;83.40;102657.72;5083121;28;20040;-79
2022/01/30 03:12:32;;;;;;;15.32;2.10;;;;;;;4.46;83.80;102673.59;5081217;28;20028;-79
2022/01/30 03:14:57;;;;;;;13.02;3.92;;;;;;;4.45;83.88;102678.00;5078704;28;20032;-79
2022/01/30 03:17:22;;;;;;;16.25;3.88;;;;;;;4.45;83.73;102669.22;5081377;28;20020;-79
2022/01/30 03:19:48;;;;;;;12.23;3.10;;;;;;;4.38;83.62;102671.50;5076474;28;20051;-79
2022/01/30 03:22:13;;;;;;;11.48;3.55;;;;;;;4.42;83.58;102685.31;5080276;28;20039;-79
2022/01/30 03:24:39;;;;;;;17.23;5.13;;;;;;;4.45;83.86;102685.91;5081736;28;20028;-79
2022/01/30 03:27:07;;;;;;;12.95;3.67;;;;;;;4.45;83.57;102696.50;5078367;28;20024;-79
2022/01/30 03:29:33;;;;;;;14.98;3.63;;;;;;;4.48;83.58;102698.06;5079282;28;20062;-79
2022/01/30 03:31:58;;;;;;;12.32;3.00;;;;;;;4.52;83.83;102703.03;5077726;28;20119;-79
2022/01/30 03:34:24;;;;;;;19.15;4.10;;;;;;;4.57;83.61;102702.69;5080111;28;20536;-79
2022/01/30 03:36:50;;;;;;;14.95;3.28;;;;;;;4.64;83.17;102693.38;5079865;28;20044;-79
2022/01/30 03:39:16;;;;;;;16.55;3.90;;;;;;;4.72;82.84;102714.78;5078835;28;20051;-79
2022/01/30 03:41:41;;;;;;;14.02;3.00;;;;;;;4.78;82.96;102716.16;5083179;28;20970;-79
2022/01/30 03:44:06;;;;;;;14.57;3.13;;;;;;;4.81;82.53;102734.41;5082666;28;20033;-79
2022/01/30 03:46:32;;;;;;;14.93;3.97;;;;;;;4.77;82.27;102727.69;5077925;28;20040;-78
2022/01/30 03:48:57;;;;;;;11.60;2.50;;;;;;;4.75;82.47;102737.53;5080948;28;20533;-80
2022/01/30 03:51:22;;;;;;;12.63;3.75;;;;;;;4.71;82.42;102738.69;5079381;28;20028;-79
2022/01/30 03:53:48;;;;;;;13.10;2.55;;;;;;;4.66;82.55;102744.28;5083160;28;20051;-79
2022/01/30 03:56:13;;;;;;;13.27;2.80;;;;;;;4.58;82.68;102736.94;5081727;28;20451;-79
2022/01/30 03:58:38;;;;;;;17.23;4.18;;;;;;;4.46;82.49;102727.25;5085435;28;20486;-79
2022/01/30 04:01:04;;;;;;;12.82;2.90;;;;;;;4.51;82.52;102758.63;5085813;28;20032;-79
2022/01/30 04:03:30;;;;;;;16.27;3.88;;;;;;;4.52;82.65;102747.94;5079837;28;20023;-79
2022/01/30 04:05:55;;;;;;;13.63;4.05;;;;;;;4.51;82.38;102754.19;5084314;28;20493;-79
2022/01/30 04:08:21;;;;;;;27.90;4.85;;;;;;;4.48;81.96;102756.19;5083432;28;20037;-79
2022/01/30 04:10:47;;;;;;;14.85;3.70;;;;;;;4.49;81.80;102756.09;5082239;28;20039;-79
2022/01/30 04:13:12;;;;;;;11.60;3.17;;;;;;;4.56;81.41;102762.63;5082702;28;20046;-79
2022/01/30 04:15:38;;;;;;;11.93;3.17;;;;;;;4.58;81.17;102765.16;5080871;28;20032;-79
2022/01/30 04:18:03;;;;;;;15.38;3.13;;;;;;;4.59;80.45;102751.84;5078783;28;20032;-79
2022/01/30 04:20:30;;;;;;;14.77;4.53;;;;;;;4.57;80.00;102750.25;5083275;28;20038;-78
2022/01/30 04:22:55;;;;;;;10.90;2.15;;;;;;;4.55;80.24;102755.66;5080270;28;20028;-79
2022/01/30 04:25:21;;;;;;;12.30;1.95;;;;;;;4.54;79.85;102759.25;5078750;28;20077;-79
2022/01/30 04:27:47;;;;;;;19.10;2.45;;;;;;;4.55;78.78;102758.28;5082532;28;20115;-79
2022/01/30 04:30:13;;;;;;;9.50;1.92;;;;;;;4.52;79.36;102761.16;5082425;28;20049;-79
2022/01/30 04:32:42;;;;;;;13.32;3.08;;;;;;;4.51;78.36;102756.84;5085312;28;20109;-79
2022/01/30 04:35:13;;;;;;;11.23;2.42;;;;;;;4.53;78.58;102767.28;5083391;28;20046;-79
2022/01/30 05:07:58;;;;;;;9.00;2.38;;;;;;;4.13;80.08;102786.78;5080218;28;20110;-79
2022/01/30 05:10:23;;;;;;;9.32;2.55;;;;;;;4.06;80.39;102789.94;5082911;28;20118;-79
2022/01/30 05:12:53;;;;;;;12.05;3.10;;;;;;;4.02;80.55;102793.78;5082859;28;20028;-79
2022/01/30 05:15:20;;;;;;;13.57;2.17;;;;;;;3.93;80.74;102789.97;5080962;28;20020;-78
2022/01/30 05:17:46;;;;;;;8.70;1.83;;;;;;;3.92;80.78;102794.38;5078645;28;20023;-79
2022/01/30 05:20:13;;;;;;;8.85;1.70;;;;;;;3.91;80.81;102786.59;5078887;28;20031;-79
2022/01/30 05:22:39;;;;;;;7.50;2.58;;;;;;;3.91;80.65;102797.16;5078930;28;20387;-79
2022/01/30 05:25:05;;;;;;;7.90;2.05;;;;;;;3.89;80.80;102799.03;5081417;28;20077;-79
2022/01/30 05:27:30;;;;;;;15.38;3.05;;;;;;;3.90;80.69;102798.06;5081449;28;21062;-79
2022/01/30 05:29:56;;;;;;;7.15;2.03;;;;;;;3.81;80.76;102780.25;5078357;28;20045;-79
2022/01/30 05:32:22;;;;;;;10.13;1.80;;;;;;;3.90;80.03;102806.88;5080451;28;20518;-78
2022/01/30 05:34:48;;;;;;;7.75;1.80;;;;;;;3.87;80.02;102791.22;5082916;28;20067;-78
2022/01/30 05:37:17;;;;;;;6.57;1.58;;;;;;;3.92;79.80;102799.66;5079263;28;20485;-78
2022/01/30 05:39:43;;;;;;;6.60;1.50;;;;;;;3.91;79.97;102794.50;5082564;28;20085;-79
2022/01/30 05:42:10;;;;;;;8.07;2.10;;;;;;;3.92;79.68;102801.47;5082152;28;20033;-79
2022/01/30 05:44:45;;;;;;;7.22;2.10;;;;;;;3.88;79.64;102798.19;5082140;28;20167;-79
2022/01/30 05:47:15;;;;;;;8.73;2.35;;;;;;;3.89;80.10;102807.78;5080109;28;20476;-79
2022/01/30 05:49:43;;;;;;;10.45;2.85;;;;;;;3.82;79.86;102801.25;5082700;28;20121;-79
2022/01/30 05:52:08;;;;;;;8.35;1.98;;;;;;;3.82;80.01;102803.03;5076131;28;20111;-79
2022/01/30 05:54:33;;;;;;;9.52;2.30;;;;;;;3.81;79.97;102804.00;5079234;28;20123;-79
2022/01/30 05:56:58;;;;;;;10.38;2.65;;;;;;;3.82;79.89;102810.97;5080659;28;20021;-79
2022/01/30 05:59:24;;;;;;;10.23;1.98;;;;;;;3.80;80.39;102803.16;5076332;28;20032;-79
2022/01/30 06:01:49;;;;;;;17.85;2.65;;;;;;;3.78;80.29;102807.69;5085240;28;20028;-79
2022/01/30 06:04:14;;;;;;;9.98;2.40;;;;;;;3.74;80.38;102808.84;5079203;28;20169;-79
2022/01/30 06:06:48;;;;;;;5.00;1.95;;;;;;;3.68;80.49;102822.44;5080655;28;20071;-78
2022/01/30 06:11:42;;;;;;;7.95;2.00;;;;;;;3.66;80.88;102819.06;5081385;28;20036;-79
2022/01/30 06:14:08;;;;;;;8.77;2.20;;;;;;;3.65;81.27;102827.94;5082843;28;20383;-79
2022/01/30 06:16:33;;;;;;;12.90;2.95;;;;;;;3.58;81.64;102832.75;5075872;28;20854;-78
2022/01/30 06:18:59;;;;;;;6.85;2.33;;;;;;;3.54;81.80;102835.69;5074860;28;20035;-79
2022/01/30 06:21:24;;;;;;;9.68;2.25;;;;;;;3.49;81.96;102822.84;5078271;28;20051;-79
2022/01/30 06:23:50;;;;;;;10.45;1.63;;;;;;;3.48;81.87;102821.13;5085345;28;20063;-79
2022/01/30 06:26:15;;;;;;;7.50;2.53;;;;;;;3.47;81.47;102828.19;5077440;28;20113;-79
2022/01/30 06:28:40;;;;;;;8.48;1.65;;;;;;;3.48;81.42;102826.41;5077667;28;20040;-79
2022/01/30 06:31:06;;;;;;;11.05;2.53;;;;;;;3.48;81.13;102827.28;5083285;28;20058;-79
2022/01/30 06:33:31;;;;;;;15.43;2.78;;;;;;;3.53;81.42;102826.09;5080714;28;20039;-79
2022/01/30 06:35:57;;;;;;;12.30;1.83;;;;;;;3.54;80.93;102828.66;5080347;28;20032;-78
2022/01/30 06:38:22;;;;;;;16.70;3.63;;;;;;;3.53;80.75;102826.09;5081415;28;20482;-79
2022/01/30 06:40:47;;;;;;;15.93;2.80;;;;;;;3.58;80.61;102838.03;5080733;28;20412;-79
2022/01/30 06:43:13;;;;;;;22.10;3.83;;;;;;;3.60;80.59;102837.94;5076967;28;20024;-78
2022/01/30 06:45:38;;;;;;;12.05;2.88;;;;;;;3.58;80.20;102839.84;5080795;28;20467;-79
2022/01/30 06:48:04;;;;;;;11.68;2.78;;;;;;;3.57;80.78;102848.72;5077711;28;20043;-79
2022/01/30 06:50:29;;;;;;;10.60;1.95;;;;;;;3.53;80.62;102847.22;5082627;28;20059;-79
2022/01/30 06:52:54;;;;;;;14.15;2.60;;;;;;;3.46;81.17;102849.41;5077715;28;20036;-79
2022/01/30 06:55:20;;;;;;;16.40;4.80;;;;;;;3.42;81.23;102851.41;5080555;28;20036;-79
2022/01/30 06:57:46;;;;;;;10.80;2.85;;;;;;;3.39;81.05;102856.88;5080385;28;20074;-79
2022/01/30 07:00:12;;;;;;;13.80;3.53;;;;;;;3.42;81.41;102861.09;5078202;28;20047;-79
2022/01/30 07:02:38;;;;;;;9.70;2.53;;;;;;;3.41;81.59;102862.06;5076909;28;20056;-78
2022/01/30 07:05:04;;;;;;;11.23;1.92;;;;;;;3.39;81.95;102869.22;5082642;28;20079;-79
2022/01/30 07:07:30;;;;;;;24.80;4.63;;;;;;;3.34;81.42;102872.16;5078173;28;20028;-79
2022/01/30 07:09:55;;;;;;;6.72;2.60;;;;;;;3.36;81.80;102870.25;5074946;28;20028;-79
2022/01/30 07:12:21;;;;;;;10.35;2.58;;;;;;;3.41;81.78;102873.44;5084134;28;20063;-79
2022/01/30 07:14:46;;;;;;;14.70;2.55;;;;;;;3.41;81.63;102881.38;5080596;28;20058;-79
2022/01/30 07:17:12;;;;;;;11.65;2.92;;;;;;;3.39;82.29;102888.53;5089105;28;20016;-79
2022/01/30 07:19:37;;;;;;;12.68;2.47;;;;;;;3.39;82.43;102885.88;5083432;28;20115;-79
2022/01/30 07:22:03;;;;;;;10.80;1.63;;;;;;;3.39;82.31;102879.78;5080733;28;20028;-79
2022/01/30 07:24:28;;;;;;;20.88;2.78;;;;;;;3.33;82.50;102882.78;5085272;28;20044;-79
2022/01/30 07:26:53;;;;;;;14.93;2.92;;;;;;;3.23;82.57;102885.19;5084883;28;20441;-79
2022/01/30 07:29:19;;;;;;;8.95;2.72;;;;;;;3.21;82.81;102892.34;5086484;28;20086;-80
2022/01/30 07:31:45;;;;;;;12.93;2.40;;;;;;;3.11;82.93;102883.31;5085265;28;20028;-79
2022/01/30 07:34:10;;;;;;;9.43;2.55;;;;;;;3.10;83.55;102894.81;5081919;28;20497;-79
2022/01/30 07:36:37;;;;;;;14.98;3.60;;;;;;;3.06;83.19;102902.06;5084027;28;20048;-79
2022/01/30 07:39:05;;;;;;;11.02;2.67;;;;;;;3.03;83.59;102900.47;5083036;28;20060;-79
2022/01/30 07:41:32;;;;;;;20.10;3.55;;;;;;;3.05;83.65;102906.50;5081746;28;20020;-79
2022/01/30 07:43:57;;;;;;;13.65;4.03;;;;;;;3.10;83.31;102906.22;5080376;28;20050;-79
2022/01/30 07:46:23;;;;;;;10.25;2.25;;;;;;;3.11;83.54;102909.69;5080665;28;20444;-78
2022/01/30 07:48:48;;;;;;;9.82;3.03;;;;;;;3.14;83.36;102905.06;5082844;28;20033;-79
2022/01/30 07:51:14;;;;;;;11.70;2.45;;;;;;;3.21;83.31;102916.06;5080056;28;20032;-79
2022/01/30 07:53:39;;;;;;;21.52;8.20;;;;;;;3.25;83.67;102910.50;5082377;28;20085;-79
2022/01/30 07:56:04;;;;;;;16.35;3.58;;;;;;;3.28;83.80;102914.75;5084576;28;20530;-80
2022/01/30 07:58:30;;;;;;;11.45;2.40;;;;;;;3.31;83.83;102924.25;5085466;28;20040;-79
2022/01/30 08:00:55;;;;;;;18.45;2.65;;;;;;;3.32;83.60;102926.78;5084281;28;20038;-79
2022/01/30 08:03:20;;;;;;;17.73;5.05;;;;;;;3.33;83.30;102930.25;5083353;28;20096;-79
2022/01/30 08:05:46;;;;;;;15.05;3.33;;;;;;;3.36;83.38;102930.09;5082002;28;20028;-79
2022/01/30 08:08:11;;;;;;;8.35;2.78;;;;;;;3.42;82.97;102932.31;5078436;28;20376;-79
2022/01/30 08:10:37;;;;;;;17.50;4.93;;;;;;;3.50;82.49;102930.88;5083909;28;20545;-79
2022/01/30 08:13:03;;;;;;;11.43;3.17;;;;;;;3.62;82.52;102939.81;5082637;28;20034;-79
2022/01/30 08:15:29;;;;;;;7.55;2.00;;;;;;;3.72;81.48;102948.81;5082620;28;20567;-79
2022/01/30 08:17:54;;;;;;;11.02;2.70;;;;;;;3.82;80.85;102937.63;5082280;28;20144;-80
2022/01/30 08:20:21;;;;;;;12.10;2.83;;;;;;;3.95;80.69;102941.16;5081618;28;20043;-79
2022/01/30 08:22:53;;;;;;;6.93;1.92;;;;;;;4.07;80.92;102943.00;5079449;28;20262;-79
2022/01/30 08:25:21;;;;;;;10.32;2.85;;;;;;;4.21;79.96;102926.22;5082096;28;20075;-79
2022/01/30 08:27:47;;;;;;;13.50;2.22;;;;;;;4.32;79.52;102933.41;5080384;28;20020;-79
2022/01/30 08:30:13;;;;;;;13.55;3.47;;;;;;;4.44;78.75;102947.59;5078939;28;20512;-79
2022/01/30 08:32:44;;;;;;;37.38;3.92;;;;;;;4.43;79.02;102932.69;5086560;28;20040;-79
2022/01/30 08:35:11;;;;;;;16.60;2.70;;;;;;;4.46;78.88;102937.78;5077739;28;20542;-79
2022/01/30 08:37:37;;;;;;;12.43;2.20;;;;;;;4.53;77.99;102939.91;5085038;28;20024;-77
2022/01/30 08:40:09;;;;;;;9.90;3.33;;;;;;;4.68;78.31;102931.84;5085521;28;20453;-77
2022/01/30 08:42:35;;;;;;;10.75;1.95;;;;;;;4.81;78.08;102933.53;5080226;28;20027;-79
2022/01/30 08:45:00;;;;;;;12.63;3.63;;;;;;;4.90;77.52;102942.63;5081200;28;20055;-79
2022/01/30 08:47:26;;;;;;;19.38;3.50;;;;;;;4.90;76.84;102942.63;5083992;28;20073;-79
2022/01/30 08:49:52;;;;;;;14.20;3.45;;;;;;;4.84;77.42;102943.03;5080090;28;20039;-79
2022/01/30 08:52:19;;;;;;;12.25;2.20;;;;;;;4.82;76.96;102950.22;5080935;28;20413;-80
2022/01/30 08:54:46;;;;;;;12.30;2.13;;;;;;;4.82;77.14;102953.72;5082575;28;20051;-80
2022/01/30 08:57:12;;;;;;;17.92;3.30;;;;;;;4.92;77.15;102961.00;5080534;28;20073;-81
2022/01/30 08:59:37;;;;;;;15.55;5.35;;;;;;;4.95;75.69;102960.78;5082489;28;20042;-81
2022/01/30 09:02:03;;;;;;;17.80;4.05;;;;;;;4.93;75.96;102963.56;5079869;28;20025;-81
2022/01/30 09:04:28;;;;;;;12.68;3.60;;;;;;;4.90;75.25;102965.56;5083079;28;20035;-81
2022/01/30 09:06:54;;;;;;;13.20;2.30;;;;;;;4.89;75.40;102971.81;5083025;28;20028;-81
2022/01/30 09:09:19;;;;;;;14.25;3.47;;;;;;;4.87;76.16;102953.38;5081215;28;20032;-80
2022/01/30 09:11:45;;;;;;;16.88;4.32;;;;;;;5.14;75.29;102969.13;5076093;28;20025;-79
2022/01/30 09:14:10;;;;;;;16.17;4.28;;;;;;;5.32;74.96;102976.69;5080501;28;20040;-80
2022/01/30 09:16:35;;;;;;;15.90;2.28;;;;;;;5.36;74.86;102984.31;5081137;28;20031;-80
2022/01/30 09:19:01;;;;;;;20.95;4.72;;;;;;;5.37;74.45;102987.81;5078162;28;20487;-79
2022/01/30 09:21:28;;;;;;;12.93;4.47;;;;;;;5.41;75.19;102978.69;5085066;28;20040;-77
2022/01/30 09:23:55;;;;;;;21.85;5.22;;;;;;;5.41;74.41;102986.63;5085425;28;20039;-74
2022/01/30 09:26:20;;;;;;;13.10;2.63;;;;;;;5.47;74.35;102988.84;5084606;28;20037;-80
2022/01/30 09:28:46;;;;;;;15.43;3.60;;;;;;;5.54;74.15;102994.53;5080438;28;20464;-79
2022/01/30 09:31:11;;;;;;;19.40;2.80;;;;;;;5.53;74.18;102988.41;5076322;28;20059;-78
2022/01/30 09:33:37;;;;;;;11.10;3.20;;;;;;;5.64;73.33;102992.94;5072057;28;20134;-79
2022/01/30 09:36:03;;;;;;;15.30;3.42;;;;;;;5.69;73.44;102991.63;5078705;28;20080;-78
2022/01/30 09:38:29;;;;;;;15.32;2.97;;;;;;;5.74;73.40;102993.09;5079993;28;20043;-77
2022/01/30 09:40:56;;;;;;;12.80;2.70;;;;;;;5.77;73.89;102991.06;5082013;28;20041;-78
2022/01/30 09:43:22;;;;;;;16.88;3.50;;;;;;;5.84;73.45;102994.97;5073232;28;20028;-78
2022/01/30 09:45:48;;;;;;;19.08;3.53;;;;;;;5.90;73.27;102991.03;5090557;28;20090;-78
2022/01/30 09:48:15;;;;;;;16.55;2.80;;;;;;;6.00;73.39;102999.16;5081549;28;20029;-78
2022/01/30 09:50:42;;;;;;;18.95;5.20;;;;;;;6.05;73.03;102992.56;5070674;28;20029;-78
2022/01/30 09:53:07;;;;;;;16.42;4.38;;;;;;;6.19;71.87;102998.66;5077092;28;20047;-78
2022/01/30 09:55:33;;;;;;;23.20;4.32;;;;;;;6.32;71.71;103008.19;5081579;28;20044;-78
2022/01/30 09:57:58;;;;;;;19.63;4.03;;;;;;;6.42;71.38;103005.72;5071765;28;20467;-78
2022/01/30 10:00:23;;;;;;;16.75;3.05;;;;;;;6.50;71.68;103010.44;5081495;28;20056;-78
2022/01/30 10:02:49;;;;;;;24.30;5.20;;;;;;;6.50;70.97;103007.78;5078867;28;20047;-79
2022/01/30 10:05:16;;;;;;;14.50;3.17;;;;;;;6.50;70.46;103013.91;5083377;28;20037;-78
2022/01/30 10:07:49;;;;;;;13.82;4.07;;;;;;;6.57;71.69;103015.13;5077543;28;20029;-78
2022/01/30 10:10:17;;;;;;;13.85;3.53;;;;;;;6.68;70.31;103026.72;5089851;28;20505;-78
2022/01/30 10:13:09;;;;;;;12.02;3.15;;;;;;;6.71;71.51;103024.69;5079289;28;20059;-78
2022/01/30 10:15:56;;;;;;;20.55;3.35;;;;;;;6.78;70.82;103027.72;5072379;28;20074;-78
2022/01/30 10:18:22;;;;;;;12.23;2.38;;;;;;;6.72;70.27;103026.38;5084007;28;20374;-78
2022/01/30 10:20:48;;;;;;;13.63;2.42;;;;;;;6.72;69.81;103033.50;5086781;28;20611;-78
2022/01/30 10:23:14;;;;;;;16.08;4.43;;;;;;;6.66;70.22;103040.13;5080386;28;20052;-79
2022/01/30 10:25:50;;;;;;;15.45;3.08;;;;;;;6.56;69.66;103039.13;5081636;28;20032;-79
2022/01/30 10:28:18;;;;;;;9.88;2.10;;;;;;;6.46;70.41;103036.31;5083311;28;20028;-79
2022/01/30 10:30:52;;;;;;;18.83;3.85;;;;;;;6.40;71.28;103028.81;5080826;28;20406;-78
2022/01/30 10:33:21;;;;;;;18.27;3.78;;;;;;;6.41;70.95;103027.84;5085956;28;20024;-79
2022/01/30 10:35:58;;;;;;;20.98;3.25;;;;;;;6.45;71.25;103031.97;5083243;28;20024;-79
2022/01/30 10:38:25;;;;;;;19.90;5.13;;;;;;;6.52;71.44;103038.50;5075466;28;20483;-75
2022/01/30 10:41:14;;;;;;;20.65;5.15;;;;;;;6.57;71.91;103027.53;5078765;28;20039;-79
2022/01/30 10:43:59;;;;;;;21.42;4.22;;;;;;;6.63;70.57;103019.13;5074391;28;20024;-78
2022/01/30 10:46:27;;;;;;;17.77;3.67;;;;;;;6.72;69.40;103036.97;5087281;28;20044;-80
2022/01/30 10:48:59;;;;;;;16.35;3.70;;;;;;;6.80;69.54;103023.97;5069959;28;20024;-78
2022/01/30 10:51:27;;;;;;;10.40;2.42;;;;;;;6.86;69.55;103024.47;5088637;28;20031;-79
2022/01/30 10:53:53;;;;;;;16.92;4.40;;;;;;;6.98;70.00;103031.47;5071962;28;20028;-79
2022/01/30 10:56:27;;;;;;;13.63;3.95;;;;;;;6.98;66.76;103019.06;5074295;28;20028;-79
2022/01/30 10:59:10;;;;;;;22.77;3.97;;;;;;;6.97;68.89;103021.84;5072856;28;20024;-78
2022/01/30 11:01:38;;;;;;;12.43;4.82;;;;;;;6.86;65.09;103027.13;5087307;28;20036;-76
2022/01/30 11:04:03;;;;;;;14.77;3.85;;;;;;;6.77;63.44;103021.56;5089223;28;20423;-78
2022/01/30 11:06:30;;;;;;;16.05;5.38;;;;;;;6.73;64.07;103019.25;5088819;28;20024;-78
2022/01/30 11:09:05;;;;;;;19.65;5.32;;;;;;;6.64;65.11;103014.69;5079207;28;20170;-78
2022/01/30 11:11:45;;;;;;;25.58;6.20;;;;;;;6.70;65.54;103003.59;5080481;28;20027;-78
2022/01/30 11:16:59;;;;;;;23.35;4.18;;;;;;;6.73;67.42;102993.59;5084226;28;20032;-78
2022/01/30 11:19:25;;;;;;;12.82;2.88;;;;;;;6.76;67.60;102997.84;5079400;28;20028;-77
2022/01/30 11:21:55;;;;;;;14.93;2.55;;;;;;;6.73;67.77;102983.00;5081384;28;20028;-78
2022/01/30 11:24:24;;;;;;;14.35;3.50;;;;;;;6.74;67.83;102994.44;5072453;28;20082;-79
2022/01/30 11:26:49;;;;;;;22.63;3.83;;;;;;;6.80;67.54;102999.25;5085628;28;20024;-78
2022/01/30 11:29:16;;;;;;;13.63;4.22;;;;;;;6.85;66.00;102990.97;5071524;28;20039;-78
2022/01/30 11:31:44;;;;;;;16.30;4.10;;;;;;;6.90;67.29;102983.50;5077155;28;20038;-77
2022/01/30 11:34:09;;;;;;;16.23;3.13;;;;;;;7.03;67.73;102990.34;5089056;28;20103;-79
2022/01/30 11:36:42;;;;;;;15.05;3.05;;;;;;;7.16;67.13;102986.75;5078209;28;20132;-78
2022/01/30 11:39:12;;;;;;;21.25;3.88;;;;;;;7.28;67.47;102988.41;5073640;28;20028;-78
2022/01/30 11:41:38;;;;;;;18.35;4.50;;;;;;;7.37;65.74;102995.66;5088747;28;20028;-78
2022/01/30 11:44:19;;;;;;;11.18;2.75;;;;;;;7.39;65.73;102988.41;5085116;28;20027;-78
2022/01/30 11:46:57;;;;;;;16.85;3.45;;;;;;;7.43;66.84;102984.53;5081704;28;20032;-78
2022/01/30 11:49:24;;;;;;;14.10;3.00;;;;;;;7.48;66.46;102973.56;5085080;28;20050;-78
2022/01/30 11:51:51;;;;;;;18.75;4.57;;;;;;;7.48;66.81;102978.84;5078126;28;20024;-78
2022/01/30 11:54:41;;;;;;;16.60;3.28;;;;;;;7.64;67.35;102976.63;5082950;28;20249;-78
2022/01/30 11:57:22;;;;;;;18.55;4.30;;;;;;;7.89;66.93;102972.00;5080916;28;20073;-78
2022/01/30 11:59:51;;;;;;;18.52;3.15;;;;;;;8.00;63.84;102971.09;5079253;28;20403;-78
2022/01/30 12:02:31;;;;;;;23.92;5.25;;;;;;;8.01;65.70;102973.63;5084205;28;20028;-78
2022/01/30 12:04:56;;;;;;;16.00;3.55;;;;;;;8.05;64.93;102977.72;5088453;28;20032;-77
2022/01/30 12:07:40;;;;;;;17.87;4.50;;;;;;;7.99;65.10;102975.59;5088941;28;20039;-78
2022/01/30 12:10:24;;;;;;;21.92;3.60;;;;;;;7.85;63.33;102968.72;5089950;28;20272;-79
2022/01/30 12:13:03;;;;;;;11.70;3.30;;;;;;;7.65;64.38;102972.16;5079385;28;20086;-78
2022/01/30 12:15:46;;;;;;;15.23;3.00;;;;;;;7.44;63.35;102970.31;5080711;28;20483;-78
2022/01/30 12:18:44;;;;;;;10.63;2.95;;;;;;;7.39;65.32;102976.97;5077316;28;20069;-78
2022/01/30 12:21:11;;;;;;;14.75;3.60;;;;;;;7.41;64.62;102967.03;5085741;28;20135;-77
2022/01/30 12:23:42;;;;;;;17.00;2.75;;;;;;;7.47;63.08;102967.41;5083096;28;20020;-76
2022/01/30 12:26:09;;;;;;;25.35;2.65;;;;;;;7.51;64.07;102967.16;5082643;28;20364;-73
2022/01/30 12:28:45;;;;;;;18.25;3.10;;;;;;;7.46;64.52;102963.03;5084587;28;20033;-76
2022/01/30 12:31:34;;;;;;;14.95;3.28;;;;;;;7.38;64.39;102961.97;5082916;28;20052;-79
2022/01/30 12:34:10;;;;;;;16.98;4.82;;;;;;;7.34;66.03;102969.34;5083391;28;20423;-78